createdAt,value
2019-05-15T00:01:40.709Z,53.00
2019-05-15T00:04:11.524Z,52.90
2019-05-15T00:06:45.375Z,52.70
2019-05-15T00:09:19.328Z,52.80
2019-05-15T00:11:53.321Z,52.70
2019-05-15T00:14:28.827Z,52.60
2019-05-15T00:17:02.486Z,52.50
2019-05-15T00:19:36.393Z,52.60
2019-05-15T00:22:10.261Z,52.60
2019-05-15T00:24:44.236Z,52.50
2019-05-15T00:27:20.130Z,52.40
2019-05-15T00:29:53.611Z,52.40
2019-05-15T00:32:28.278Z,52.40
2019-05-15T00:35:02.717Z,52.50
2019-05-15T00:37:38.555Z,52.50
2019-05-15T00:40:12.236Z,52.30
2019-05-15T00:42:46.054Z,52.50
2019-05-15T00:45:20.066Z,52.50
2019-05-15T00:47:53.792Z,52.40
2019-05-15T00:50:28.742Z,52.60
2019-05-15T00:53:02.980Z,52.50
2019-05-15T00:55:38.008Z,52.40
2019-05-15T00:58:11.895Z,52.40
2019-05-15T01:00:46.025Z,52.40
2019-05-15T01:03:19.950Z,52.40
2019-05-15T01:05:53.645Z,52.50
2019-05-15T01:08:28.540Z,52.50
2019-05-15T01:11:02.548Z,52.40
2019-05-15T01:13:38.615Z,52.50
2019-05-15T01:16:11.667Z,52.60
2019-05-15T01:18:45.630Z,52.50
2019-05-15T01:21:19.505Z,52.50
2019-05-15T01:23:53.455Z,52.50
2019-05-15T01:26:28.193Z,52.50
2019-05-15T01:29:02.187Z,52.50
2019-05-15T01:31:37.901Z,52.70
2019-05-15T01:34:11.392Z,52.70
2019-05-15T01:36:45.158Z,52.80
2019-05-15T01:39:19.044Z,52.90
2019-05-15T01:41:52.864Z,52.90
2019-05-15T01:44:28.560Z,52.90
2019-05-15T01:47:02.126Z,52.90
2019-05-15T01:49:38.244Z,52.90
2019-05-15T01:52:11.427Z,53.00
2019-05-15T01:54:45.093Z,53.00
2019-05-15T01:57:19.006Z,53.00
2019-05-15T01:59:57.308Z,53.10
2019-05-15T02:02:28.303Z,53.10
2019-05-15T02:05:02.130Z,53.10
2019-05-15T02:07:35.985Z,53.10
2019-05-15T02:10:10.550Z,53.10
2019-05-15T02:12:44.440Z,53.10
2019-05-15T02:15:19.101Z,53.10
2019-05-15T02:17:53.308Z,53.00
2019-05-15T02:20:29.165Z,53.00
2019-05-15T02:23:02.542Z,53.00
2019-05-15T02:25:38.580Z,53.00
2019-05-15T02:28:12.212Z,53.10
2019-05-15T02:30:49.983Z,53.00
2019-05-15T02:33:21.505Z,52.90
2019-05-15T02:35:55.347Z,52.90
2019-05-15T02:38:29.737Z,52.90
2019-05-15T02:41:03.896Z,53.10
2019-05-15T02:43:38.997Z,53.10
2019-05-15T02:46:13.198Z,53.10
2019-05-15T02:48:48.832Z,53.10
2019-05-15T02:51:22.302Z,53.10
2019-05-15T02:53:58.572Z,53.10
2019-05-15T02:56:31.801Z,53.10
2019-05-15T02:59:08.995Z,53.10
2019-05-15T03:01:40.944Z,53.00
2019-05-15T03:04:15.278Z,53.10
2019-05-15T03:06:49.742Z,53.00
2019-05-15T03:09:23.978Z,53.10
2019-05-15T03:11:58.631Z,53.10
2019-05-15T03:14:32.838Z,53.10
2019-05-15T03:17:09.497Z,53.00
2019-05-15T03:19:42.084Z,53.00
2019-05-15T03:22:15.837Z,53.00
2019-05-15T03:24:50.462Z,53.00
2019-05-15T03:27:24.544Z,53.10
2019-05-15T03:29:59.422Z,53.00
2019-05-15T03:32:43.623Z,53.10
2019-05-15T03:35:14.544Z,53.00
2019-05-15T03:37:49.013Z,53.10
2019-05-15T03:40:21.066Z,53.20
2019-05-15T03:42:54.750Z,53.30
2019-05-15T03:45:29.675Z,53.30
2019-05-15T03:48:03.884Z,53.40
2019-05-15T03:50:40.083Z,53.50
2019-05-15T03:53:13.405Z,53.50
2019-05-15T03:55:49.044Z,53.60
2019-05-15T03:58:22.520Z,53.60
2019-05-15T04:00:59.859Z,53.60
2019-05-15T04:03:31.708Z,53.60
2019-05-15T04:06:05.501Z,53.60
2019-05-15T04:08:39.535Z,53.70
2019-05-15T04:11:13.715Z,53.80
2019-05-15T04:13:49.956Z,53.80
2019-05-15T04:16:22.847Z,54.00
2019-05-15T04:18:59.273Z,54.10
2019-05-15T04:21:31.977Z,54.20
2019-05-15T04:24:09.526Z,54.40
2019-05-15T04:26:45.109Z,54.50
2019-05-15T04:29:19.593Z,54.60
2019-05-15T04:32:01.139Z,54.70
2019-05-15T04:34:29.135Z,54.80
2019-05-15T04:37:03.154Z,54.90
2019-05-15T04:39:39.738Z,54.80
2019-05-15T04:42:12.254Z,54.70
2019-05-15T04:44:45.988Z,54.70
2019-05-15T04:47:20.778Z,54.50
2019-05-15T04:49:54.410Z,54.50
2019-05-15T04:52:30.392Z,54.40
2019-05-15T04:55:03.901Z,54.40
2019-05-15T04:57:40.053Z,54.50
2019-05-15T05:00:13.534Z,54.50
2019-05-15T05:02:49.616Z,54.20
2019-05-15T05:05:22.771Z,53.80
2019-05-15T05:07:59.666Z,53.30
2019-05-15T05:10:33.234Z,52.80
2019-05-15T05:13:08.922Z,52.50
2019-05-15T05:15:42.754Z,51.90
2019-05-15T05:18:18.840Z,51.20
2019-05-15T05:20:51.885Z,50.70
2019-05-15T05:23:25.668Z,50.10
2019-05-15T05:25:59.416Z,49.30
2019-05-15T05:28:33.668Z,48.50
2019-05-15T05:31:08.352Z,48.00
2019-05-15T05:33:42.490Z,48.00
2019-05-15T05:36:18.350Z,46.40
2019-05-15T05:38:52.012Z,45.40
2019-05-15T05:41:27.959Z,45.30
2019-05-15T05:44:01.090Z,44.80
2019-05-15T05:46:35.011Z,44.50
2019-05-15T05:49:08.839Z,43.60
2019-05-15T05:51:42.472Z,43.40
2019-05-15T05:54:18.232Z,43.10
2019-05-15T05:56:51.468Z,42.40
2019-05-15T05:59:25.237Z,42.40
2019-05-15T06:01:59.136Z,41.70
2019-05-15T06:04:33.194Z,41.60
2019-05-15T06:07:13.829Z,41.20
2019-05-15T06:09:42.398Z,40.70
2019-05-15T06:12:18.695Z,40.30
2019-05-15T06:14:51.459Z,39.70
2019-05-15T06:17:25.190Z,39.50
2019-05-15T06:19:58.894Z,39.40
2019-05-15T06:22:32.646Z,38.70
2019-05-15T06:25:10.642Z,38.70
2019-05-15T06:27:42.063Z,38.30
2019-05-15T06:30:26.017Z,38.20
2019-05-15T06:33:04.617Z,37.20
2019-05-15T06:35:31.234Z,36.80
2019-05-15T06:38:03.338Z,36.70
2019-05-15T06:40:39.359Z,35.90
2019-05-15T06:43:12.438Z,35.80
2019-05-15T06:45:48.459Z,35.40
2019-05-15T06:48:21.414Z,35.10
2019-05-15T06:50:55.134Z,35.00
2019-05-15T06:53:29.142Z,34.90
2019-05-15T06:56:02.999Z,35.20
2019-05-15T06:58:38.474Z,34.80
2019-05-15T07:01:12.281Z,33.80
2019-05-15T07:03:48.248Z,33.50
2019-05-15T07:06:21.404Z,32.70
2019-05-15T07:08:55.330Z,32.30
2019-05-15T07:11:29.086Z,31.30
2019-05-15T07:14:02.793Z,31.30
2019-05-15T07:16:38.787Z,31.20
2019-05-15T07:19:12.140Z,30.90
2019-05-15T07:21:45.886Z,30.60
2019-05-15T07:24:20.239Z,30.30
2019-05-15T07:26:54.045Z,30.40
2019-05-15T07:29:29.200Z,29.70
2019-05-15T07:32:03.359Z,29.10
2019-05-15T07:34:37.848Z,29.00
2019-05-15T07:37:12.047Z,29.00
2019-05-15T07:39:48.593Z,28.70
2019-05-15T07:42:22.367Z,28.60
2019-05-15T07:44:58.711Z,28.40
2019-05-15T07:47:31.756Z,27.30
2019-05-15T07:50:08.726Z,27.70
2019-05-15T07:52:43.207Z,27.50
2019-05-15T07:55:18.454Z,27.10
2019-05-15T07:57:52.443Z,26.90
2019-05-15T08:00:28.825Z,26.60
2019-05-15T08:03:02.716Z,26.50
2019-05-15T08:05:39.466Z,26.00
2019-05-15T08:08:11.913Z,25.60
2019-05-15T08:10:45.612Z,25.50
2019-05-15T08:13:19.502Z,25.20
2019-05-15T08:15:53.247Z,24.70
2019-05-15T08:18:28.628Z,25.10
2019-05-15T08:21:02.519Z,24.70
2019-05-15T08:23:38.886Z,25.20
2019-05-15T08:26:11.755Z,25.60
2019-05-15T08:28:45.494Z,24.50
2019-05-15T08:31:19.246Z,23.80
2019-05-15T08:33:53.532Z,24.20
2019-05-15T08:36:27.695Z,24.20
2019-05-15T08:39:02.895Z,24.40
2019-05-15T08:41:38.838Z,24.10
2019-05-15T08:44:12.003Z,24.30
2019-05-15T08:46:47.838Z,24.40
2019-05-15T08:49:21.130Z,24.60
2019-05-15T08:51:54.872Z,25.00
2019-05-15T08:54:29.175Z,23.80
2019-05-15T08:57:03.089Z,21.60
2019-05-15T08:59:38.105Z,22.90
2019-05-15T09:02:12.399Z,22.40
2019-05-15T09:04:48.489Z,22.50
2019-05-15T09:07:21.460Z,23.50
2019-05-15T09:09:55.303Z,23.20
2019-05-15T09:12:29.582Z,21.20
2019-05-15T09:15:04.034Z,20.20
2019-05-15T09:17:39.809Z,21.20
2019-05-15T09:20:14.467Z,21.90
2019-05-15T09:22:49.005Z,22.10
2019-05-15T09:25:23.486Z,21.90
2019-05-15T09:27:57.956Z,21.90
2019-05-15T09:30:31.866Z,21.80
2019-05-15T09:33:05.583Z,21.30
2019-05-15T09:35:39.455Z,21.00
2019-05-15T09:38:13.408Z,21.20
2019-05-15T09:40:50.161Z,21.60
2019-05-15T09:43:22.599Z,21.30
2019-05-15T09:45:58.345Z,20.60
2019-05-15T09:48:31.760Z,20.30
2019-05-15T09:51:05.556Z,20.50
2019-05-15T09:53:39.722Z,20.60
2019-05-15T09:56:13.440Z,21.30
2019-05-15T09:58:48.963Z,21.70
2019-05-15T10:01:22.474Z,20.80
2019-05-15T10:03:56.409Z,21.30
2019-05-15T10:06:30.132Z,20.60
2019-05-15T10:09:08.854Z,19.90
2019-05-15T10:11:41.326Z,21.00
2019-05-15T10:14:14.996Z,20.30
2019-05-15T10:16:49.342Z,21.20
2019-05-15T10:19:23.146Z,20.50
2019-05-15T10:21:59.354Z,20.40
2019-05-15T10:24:32.313Z,20.60
2019-05-15T10:27:08.602Z,20.80
2019-05-15T10:29:41.598Z,20.80
2019-05-15T10:32:15.324Z,21.10
2019-05-15T10:34:49.104Z,21.10
2019-05-15T10:37:22.761Z,20.70
2019-05-15T10:39:58.963Z,20.90
2019-05-15T10:42:32.698Z,20.70
2019-05-15T10:45:08.361Z,20.30
2019-05-15T10:47:42.485Z,20.70
2019-05-15T10:50:19.083Z,20.50
2019-05-15T10:52:53.200Z,21.10
2019-05-15T10:55:28.891Z,21.40
2019-05-15T10:58:02.293Z,21.60
2019-05-15T11:00:36.090Z,21.10
2019-05-15T11:03:09.867Z,21.50
2019-05-15T11:05:45.720Z,22.10
2019-05-15T11:08:19.269Z,22.10
2019-05-15T11:10:53.271Z,22.00
2019-05-15T11:13:28.881Z,21.60
2019-05-15T11:16:02.481Z,20.00
2019-05-15T11:18:39.105Z,20.30
2019-05-15T11:21:11.518Z,20.70
2019-05-15T11:23:45.268Z,21.50
2019-05-15T11:26:19.443Z,20.90
2019-05-15T11:28:53.659Z,21.50
2019-05-15T11:31:28.635Z,22.00
2019-05-15T11:34:02.643Z,22.10
2019-05-15T11:36:38.658Z,22.70
2019-05-15T11:39:11.675Z,23.20
2019-05-15T11:41:45.374Z,22.70
2019-05-15T11:44:19.102Z,22.60
2019-05-15T11:46:52.957Z,22.50
2019-05-15T11:49:29.083Z,22.70
2019-05-15T11:52:02.305Z,22.50
2019-05-15T11:54:38.397Z,22.10
2019-05-15T11:57:11.464Z,23.20
2019-05-15T11:59:46.212Z,23.40
2019-05-15T12:02:20.538Z,23.30
2019-05-15T12:04:54.253Z,23.80
2019-05-15T12:07:29.030Z,23.70
2019-05-15T12:10:03.602Z,23.50
2019-05-15T12:12:38.592Z,23.70
2019-05-15T12:15:13.378Z,23.40
2019-05-15T12:17:48.526Z,23.30
2019-05-15T12:20:23.146Z,23.10
2019-05-15T12:22:59.256Z,22.80
2019-05-15T12:25:32.240Z,23.10
2019-05-15T12:28:09.116Z,23.10
2019-05-15T12:30:41.619Z,23.00
2019-05-15T12:33:18.181Z,23.10
2019-05-15T12:35:51.253Z,21.30
2019-05-15T12:38:25.009Z,22.20
2019-05-15T13:01:43.345Z,22.90
2019-05-15T13:04:17.037Z,23.00
2019-05-15T13:07:11.564Z,22.70
2019-05-15T13:09:27.766Z,22.40
2019-05-15T13:12:02.025Z,22.50
2019-05-15T13:14:35.873Z,22.80
2019-05-15T13:17:10.010Z,22.50
2019-05-15T13:19:43.742Z,22.50
2019-05-15T13:22:24.382Z,22.80
2019-05-15T13:24:53.121Z,22.80
2019-05-15T13:27:26.855Z,23.10
2019-05-15T13:30:00.528Z,23.20
2019-05-15T13:32:34.240Z,23.10
2019-05-15T13:35:09.917Z,23.20
2019-05-15T13:37:43.752Z,23.30
2019-05-15T13:40:18.591Z,23.60
2019-05-15T13:42:52.870Z,23.40
2019-05-15T13:45:28.800Z,23.20
2019-05-15T13:48:01.981Z,23.10
2019-05-15T13:50:35.838Z,22.30
2019-05-15T13:53:11.272Z,22.60
2019-05-15T13:55:44.944Z,22.90
2019-05-15T13:58:18.575Z,23.40
2019-05-15T14:00:52.377Z,23.70
2019-05-15T14:03:28.275Z,24.00
2019-05-15T14:06:01.467Z,24.30
2019-05-15T14:08:38.191Z,24.40
2019-05-15T14:11:10.679Z,24.40
2019-05-15T14:13:44.415Z,24.30
2019-05-15T14:16:19.290Z,24.50
2019-05-15T14:18:53.523Z,24.70
2019-05-15T14:21:28.507Z,24.30
2019-05-15T14:24:02.425Z,24.40
2019-05-15T14:26:36.523Z,24.50
2019-05-15T14:29:10.178Z,24.90
2019-05-15T14:31:43.963Z,25.10
2019-05-15T14:34:18.615Z,25.40
2019-05-15T14:36:53.948Z,25.40
2019-05-15T14:39:28.056Z,25.60
2019-05-15T14:42:04.635Z,25.30
2019-05-15T14:44:38.698Z,25.20
2019-05-15T14:47:12.731Z,25.50
2019-05-15T14:49:49.271Z,25.60
2019-05-15T14:52:21.941Z,25.80
2019-05-15T14:54:55.682Z,26.00
2019-05-15T14:57:29.648Z,26.20
2019-05-15T15:00:03.780Z,26.20
2019-05-15T15:02:39.010Z,26.30
2019-05-15T15:05:13.052Z,26.60
2019-05-15T15:07:49.022Z,26.40
2019-05-15T15:10:23.150Z,26.70
2019-05-15T15:12:58.525Z,26.60
2019-05-15T15:15:32.304Z,26.30
2019-05-15T15:18:08.035Z,26.50
2019-05-15T15:20:41.463Z,26.60
2019-05-15T15:23:15.096Z,26.50
2019-05-15T15:25:48.794Z,26.60
2019-05-15T15:28:22.511Z,26.20
2019-05-15T15:30:58.105Z,26.40
2019-05-15T15:33:31.635Z,26.40
2019-05-15T15:36:05.413Z,26.70
2019-05-15T15:38:43.780Z,26.70
2019-05-15T15:41:14.496Z,27.10
2019-05-15T15:43:48.578Z,27.30
2019-05-15T15:46:22.563Z,27.80
2019-05-15T15:48:59.076Z,27.20
2019-05-15T15:51:31.661Z,27.30
2019-05-15T15:54:05.375Z,27.30
2019-05-15T15:56:39.346Z,27.20
2019-05-15T15:59:13.667Z,27.30
2019-05-15T16:01:49.361Z,27.30
2019-05-15T16:04:22.638Z,27.50
2019-05-15T16:06:58.734Z,27.60
2019-05-15T16:09:31.721Z,27.60
2019-05-15T16:12:05.538Z,27.80
2019-05-15T16:14:39.215Z,27.80
2019-05-15T16:17:12.927Z,27.90
2019-05-15T16:19:48.981Z,28.10
2019-05-15T16:22:21.911Z,28.30
2019-05-15T16:24:58.741Z,28.10
2019-05-15T16:27:31.360Z,28.00
2019-05-15T16:30:08.252Z,28.00
2019-05-15T16:32:42.079Z,28.00
2019-05-15T16:35:18.263Z,28.00
2019-05-15T16:37:51.745Z,28.30
2019-05-15T16:40:25.749Z,28.60
2019-05-15T16:42:59.710Z,28.70
2019-05-15T16:45:34.552Z,28.80
2019-05-15T16:48:09.467Z,28.80
2019-05-15T16:50:48.561Z,28.70
2019-05-15T16:53:21.934Z,29.30
2019-05-15T16:55:55.817Z,29.00
2019-05-15T16:58:29.904Z,29.10
2019-05-15T17:01:03.995Z,29.10
2019-05-15T17:03:38.182Z,29.20
2019-05-15T17:06:12.600Z,29.30
2019-05-15T17:08:48.864Z,29.40
2019-05-15T17:11:25.681Z,29.50
2019-05-15T17:14:05.044Z,29.60
2019-05-15T17:16:38.747Z,29.80
2019-05-15T17:19:14.591Z,29.90
2019-05-15T17:21:48.321Z,29.70
2019-05-15T17:24:22.661Z,30.00
2019-05-15T17:26:59.301Z,30.10
2019-05-15T17:29:31.743Z,30.30
2019-05-15T17:32:05.527Z,30.70
2019-05-15T17:34:39.245Z,30.90
2019-05-15T17:37:12.891Z,31.00
2019-05-15T17:39:48.467Z,31.10
2019-05-15T17:42:21.804Z,31.60
2019-05-15T17:44:57.840Z,31.50
2019-05-15T17:47:30.938Z,31.60
2019-05-15T17:50:05.200Z,31.90
2019-05-15T17:52:40.125Z,32.00
2019-05-15T17:55:13.925Z,32.20
2019-05-15T17:57:54.609Z,32.30
2019-05-15T18:00:23.097Z,32.70
2019-05-15T18:02:57.209Z,32.60
2019-05-15T18:05:31.063Z,32.60
2019-05-15T18:08:04.776Z,32.90
2019-05-15T18:10:38.628Z,33.10
2019-05-15T18:13:12.205Z,33.40
2019-05-15T18:15:45.931Z,33.50
2019-05-15T18:18:19.593Z,33.70
2019-05-15T18:20:53.278Z,33.80
2019-05-15T18:23:26.998Z,34.00
2019-05-15T18:26:00.973Z,34.40
2019-05-15T18:28:34.630Z,34.40
2019-05-15T18:31:08.999Z,34.50
2019-05-15T18:33:53.477Z,34.80
2019-05-15T18:36:18.442Z,35.10
2019-05-15T18:38:52.140Z,35.30
2019-05-15T18:41:25.833Z,35.30
2019-05-15T18:43:59.506Z,35.30
2019-05-15T18:46:33.263Z,35.60
2019-05-15T18:49:07.155Z,35.70
2019-05-15T18:51:40.851Z,36.00
2019-05-15T18:54:14.550Z,36.20
2019-05-15T18:56:48.982Z,36.30
2019-05-15T18:59:22.902Z,36.30
2019-05-15T19:01:58.662Z,36.30
2019-05-15T19:04:32.353Z,36.40
2019-05-15T19:07:06.057Z,36.50
2019-05-15T19:09:39.810Z,36.70
2019-05-15T19:12:13.983Z,36.70
2019-05-15T19:14:49.386Z,36.80
2019-05-15T19:17:23.159Z,36.90
2019-05-15T19:19:58.668Z,37.10
2019-05-15T19:22:32.170Z,37.10
2019-05-15T19:25:08.589Z,37.20
2019-05-15T19:27:41.679Z,37.40
2019-05-15T19:30:15.681Z,37.50
2019-05-15T19:32:49.345Z,37.70
2019-05-15T19:35:23.512Z,37.90
2019-05-15T19:37:58.481Z,38.00
2019-05-15T19:40:32.539Z,38.10
2019-05-15T19:43:06.284Z,38.40
2019-05-15T19:45:39.973Z,38.60
2019-05-15T19:48:13.741Z,38.80
2019-05-15T19:50:54.469Z,39.10
2019-05-15T19:53:28.428Z,39.20
2019-05-15T19:56:02.404Z,39.30
2019-05-15T19:58:36.510Z,39.50
2019-05-15T20:01:10.389Z,39.50
2019-05-15T20:03:52.247Z,39.60
2019-05-15T20:06:19.486Z,39.90
2019-05-15T20:08:53.704Z,40.10
2019-05-15T20:11:29.519Z,40.20
2019-05-15T20:14:03.981Z,40.40
2019-05-15T20:16:38.828Z,40.60
2019-05-15T20:19:13.146Z,40.70
2019-05-15T20:21:47.278Z,40.90
2019-05-15T20:24:20.994Z,41.20
2019-05-15T20:26:54.692Z,41.30
2019-05-15T20:29:28.924Z,41.40
2019-05-15T20:32:02.882Z,41.30
2019-05-15T20:34:37.938Z,41.60
2019-05-15T20:37:12.107Z,41.90
2019-05-15T20:39:45.736Z,41.90
2019-05-15T20:42:19.661Z,42.20
2019-05-15T20:44:53.716Z,42.30
2019-05-15T20:47:28.063Z,42.40
2019-05-15T20:50:02.133Z,42.70
2019-05-15T20:52:35.913Z,42.90
2019-05-15T20:55:09.796Z,43.30
2019-05-15T20:57:43.631Z,43.30
2019-05-15T21:00:19.187Z,43.20
2019-05-15T21:02:53.484Z,43.30
2019-05-15T21:05:27.843Z,43.40
2019-05-15T21:08:01.890Z,43.90
2019-05-15T21:10:42.760Z,43.90
2019-05-15T21:13:14.134Z,44.80
2019-05-15T21:15:48.511Z,44.20
2019-05-15T21:18:24.034Z,44.30
2019-05-15T21:20:57.724Z,44.50
2019-05-15T21:23:31.452Z,44.60
2019-05-15T21:26:07.850Z,44.70
2019-05-15T21:28:40.850Z,44.80
2019-05-15T21:31:15.082Z,45.10
2019-05-15T21:33:50.440Z,45.20
2019-05-15T21:36:24.352Z,45.40
2019-05-15T21:38:58.598Z,45.50
2019-05-15T21:41:32.631Z,45.60
2019-05-15T21:44:08.593Z,45.70
2019-05-15T21:46:41.752Z,46.10
2019-05-15T21:49:15.626Z,45.90
2019-05-15T21:51:49.590Z,46.00
2019-05-15T21:54:23.324Z,46.30
2019-05-15T21:57:12.851Z,46.40
2019-05-15T21:59:32.768Z,46.40
2019-05-15T22:02:06.614Z,46.40
2019-05-15T22:04:51.321Z,46.50
2019-05-15T22:07:17.666Z,46.50
2019-05-15T22:09:51.419Z,46.70
2019-05-15T22:12:25.118Z,46.70
2019-05-15T22:14:58.878Z,46.90
2019-05-15T22:17:32.604Z,47.10
2019-05-15T22:20:08.725Z,47.10
2019-05-15T22:22:42.807Z,47.10
2019-05-15T22:25:19.029Z,47.10
2019-05-15T22:27:53.000Z,47.30
2019-05-15T22:30:29.876Z,47.00
2019-05-15T22:33:02.989Z,46.90
2019-05-15T22:35:37.713Z,47.00
2019-05-15T22:38:12.568Z,47.00
2019-05-15T22:40:48.411Z,46.90
2019-05-15T22:43:21.466Z,46.80
2019-05-15T22:45:55.088Z,46.60
2019-05-15T22:48:29.021Z,46.50
2019-05-15T22:51:02.837Z,46.60
2019-05-15T22:53:38.259Z,46.60
2019-05-15T22:56:12.393Z,46.60
2019-05-15T22:58:47.996Z,46.50
2019-05-15T23:01:21.534Z,46.50
2019-05-15T23:03:55.305Z,46.50
2019-05-15T23:06:29.042Z,46.50
2019-05-15T23:09:02.736Z,46.50
2019-05-15T23:11:39.076Z,46.40
2019-05-15T23:14:12.088Z,46.40
2019-05-15T23:16:48.154Z,46.30
2019-05-15T23:19:21.714Z,46.30
2019-05-15T23:21:55.560Z,46.10
2019-05-15T23:24:29.297Z,46.10
2019-05-15T23:27:03.097Z,45.80
2019-05-15T23:29:38.537Z,45.70
2019-05-15T23:32:12.273Z,45.70
2019-05-15T23:34:45.899Z,45.70
2019-05-15T23:37:19.723Z,45.80
2019-05-15T23:39:53.391Z,45.80
2019-05-15T23:42:29.228Z,45.70
2019-05-15T23:45:02.609Z,45.80
2019-05-15T23:47:38.425Z,45.80
2019-05-15T23:50:11.902Z,45.80
2019-05-15T23:52:45.702Z,45.80
2019-05-15T23:55:19.645Z,45.90
2019-05-15T23:57:53.574Z,45.90
